sensor_id;sensor_type;location;lat;lon;timestamp;P1;durP1;ratioP1;P2;durP2;ratioP2
7621;SDS011;3852;52.284;8.032;2022-12-18T00:01:22;38.97;;;19.77;;
7621;SDS011;3852;52.284;8.032;2022-12-18T00:03:51;40.53;;;19.63;;
7621;SDS011;3852;52.284;8.032;2022-12-18T00:06:20;40.67;;;20.05;;
7621;SDS011;3852;52.284;8.032;2022-12-18T00:08:47;40.58;;;18.67;;
7621;SDS011;3852;52.284;8.032;2022-12-18T00:11:14;39.13;;;18.83;;
7621;SDS011;3852;52.284;8.032;2022-12-18T00:13:43;40.58;;;19.27;;
7621;SDS011;3852;52.284;8.032;2022-12-18T00:16:11;35.20;;;18.13;;
7621;SDS011;3852;52.284;8.032;2022-12-18T00:18:39;37.20;;;18.35;;
7621;SDS011;3852;52.284;8.032;2022-12-18T00:21:08;38.70;;;17.35;;
7621;SDS011;3852;52.284;8.032;2022-12-18T00:23:36;38.65;;;19.42;;
7621;SDS011;3852;52.284;8.032;2022-12-18T00:26:04;39.08;;;19.00;;
7621;SDS011;3852;52.284;8.032;2022-12-18T00:28:32;38.13;;;20.15;;
7621;SDS011;3852;52.284;8.032;2022-12-18T00:33:32;37.58;;;18.63;;
7621;SDS011;3852;52.284;8.032;2022-12-18T00:36:03;37.08;;;19.25;;
7621;SDS011;3852;52.284;8.032;2022-12-18T00:38:32;39.72;;;18.48;;
7621;SDS011;3852;52.284;8.032;2022-12-18T00:40:59;38.22;;;18.52;;
7621;SDS011;3852;52.284;8.032;2022-12-18T00:43:25;38.33;;;17.20;;
7621;SDS011;3852;52.284;8.032;2022-12-18T00:45:52;31.00;;;16.75;;
7621;SDS011;3852;52.284;8.032;2022-12-18T00:48:17;33.80;;;16.33;;
7621;SDS011;3852;52.284;8.032;2022-12-18T00:50:43;32.80;;;17.07;;
7621;SDS011;3852;52.284;8.032;2022-12-18T00:53:12;29.73;;;15.50;;
7621;SDS011;3852;52.284;8.032;2022-12-18T00:55:41;37.20;;;17.47;;
7621;SDS011;3852;52.284;8.032;2022-12-18T00:58:08;34.78;;;16.48;;
7621;SDS011;3852;52.284;8.032;2022-12-18T01:00:35;29.40;;;16.67;;
7621;SDS011;3852;52.284;8.032;2022-12-18T01:03:01;28.20;;;16.10;;
7621;SDS011;3852;52.284;8.032;2022-12-18T01:05:28;31.02;;;15.77;;
7621;SDS011;3852;52.284;8.032;2022-12-18T01:07:54;34.13;;;16.97;;
7621;SDS011;3852;52.284;8.032;2022-12-18T01:10:21;28.40;;;15.20;;
7621;SDS011;3852;52.284;8.032;2022-12-18T01:12:48;33.80;;;16.35;;
7621;SDS011;3852;52.284;8.032;2022-12-18T01:15:14;31.70;;;16.25;;
7621;SDS011;3852;52.284;8.032;2022-12-18T01:17:41;31.42;;;16.35;;
7621;SDS011;3852;52.284;8.032;2022-12-18T01:20:07;33.75;;;16.33;;
7621;SDS011;3852;52.284;8.032;2022-12-18T01:22:36;28.05;;;14.45;;
7621;SDS011;3852;52.284;8.032;2022-12-18T01:25:02;28.30;;;15.63;;
7621;SDS011;3852;52.284;8.032;2022-12-18T01:27:29;29.58;;;16.48;;
7621;SDS011;3852;52.284;8.032;2022-12-18T01:29:56;33.70;;;15.93;;
7621;SDS011;3852;52.284;8.032;2022-12-18T01:32:21;29.70;;;16.37;;
7621;SDS011;3852;52.284;8.032;2022-12-18T01:34:47;29.73;;;15.68;;
7621;SDS011;3852;52.284;8.032;2022-12-18T01:37:13;29.67;;;16.13;;
7621;SDS011;3852;52.284;8.032;2022-12-18T01:39:39;34.47;;;16.20;;
7621;SDS011;3852;52.284;8.032;2022-12-18T01:42:14;30.80;;;16.43;;
7621;SDS011;3852;52.284;8.032;2022-12-18T01:44:55;31.00;;;15.98;;
7621;SDS011;3852;52.284;8.032;2022-12-18T01:53:02;25.75;;;15.32;;
7621;SDS011;3852;52.284;8.032;2022-12-18T01:55:39;30.02;;;16.73;;
7621;SDS011;3852;52.284;8.032;2022-12-18T01:58:14;31.10;;;16.38;;
7621;SDS011;3852;52.284;8.032;2022-12-18T02:00:41;29.10;;;14.95;;
7621;SDS011;3852;52.284;8.032;2022-12-18T02:03:07;28.13;;;15.45;;
7621;SDS011;3852;52.284;8.032;2022-12-18T02:11:23;33.30;;;15.73;;
7621;SDS011;3852;52.284;8.032;2022-12-18T02:17:21;25.40;;;14.55;;
7621;SDS011;3852;52.284;8.032;2022-12-18T02:20:25;28.25;;;15.38;;
7621;SDS011;3852;52.284;8.032;2022-12-18T02:23:03;28.30;;;14.15;;
7621;SDS011;3852;52.284;8.032;2022-12-18T02:26:02;28.70;;;14.98;;
7621;SDS011;3852;52.284;8.032;2022-12-18T02:28:28;29.35;;;14.95;;
7621;SDS011;3852;52.284;8.032;2022-12-18T02:31:01;29.80;;;14.32;;
7621;SDS011;3852;52.284;8.032;2022-12-18T02:33:31;29.35;;;15.10;;
7621;SDS011;3852;52.284;8.032;2022-12-18T02:36:00;30.75;;;15.23;;
7621;SDS011;3852;52.284;8.032;2022-12-18T02:38:27;24.83;;;14.30;;
7621;SDS011;3852;52.284;8.032;2022-12-18T02:40:55;27.85;;;14.70;;
7621;SDS011;3852;52.284;8.032;2022-12-18T02:43:22;32.85;;;14.05;;
7621;SDS011;3852;52.284;8.032;2022-12-18T02:45:50;26.60;;;14.03;;
7621;SDS011;3852;52.284;8.032;2022-12-18T02:48:23;21.42;;;13.32;;
7621;SDS011;3852;52.284;8.032;2022-12-18T02:54:12;27.35;;;14.40;;
7621;SDS011;3852;52.284;8.032;2022-12-18T02:56:46;21.08;;;12.73;;
7621;SDS011;3852;52.284;8.032;2022-12-18T02:59:30;27.88;;;13.43;;
7621;SDS011;3852;52.284;8.032;2022-12-18T03:02:12;27.38;;;13.65;;
7621;SDS011;3852;52.284;8.032;2022-12-18T03:05:16;26.60;;;13.90;;
7621;SDS011;3852;52.284;8.032;2022-12-18T03:07:58;25.02;;;14.18;;
7621;SDS011;3852;52.284;8.032;2022-12-18T03:10:35;25.65;;;14.20;;
7621;SDS011;3852;52.284;8.032;2022-12-18T03:13:41;26.95;;;13.95;;
7621;SDS011;3852;52.284;8.032;2022-12-18T03:16:23;25.65;;;13.20;;
7621;SDS011;3852;52.284;8.032;2022-12-18T03:18:57;28.70;;;14.02;;
7621;SDS011;3852;52.284;8.032;2022-12-18T03:21:33;23.25;;;14.15;;
7621;SDS011;3852;52.284;8.032;2022-12-18T03:24:21;28.48;;;14.20;;
7621;SDS011;3852;52.284;8.032;2022-12-18T03:26:51;29.70;;;13.40;;
7621;SDS011;3852;52.284;8.032;2022-12-18T03:29:27;27.70;;;14.23;;
7621;SDS011;3852;52.284;8.032;2022-12-18T03:35:30;26.25;;;13.73;;
7621;SDS011;3852;52.284;8.032;2022-12-18T03:38:01;24.55;;;13.25;;
7621;SDS011;3852;52.284;8.032;2022-12-18T03:40:30;29.53;;;13.60;;
7621;SDS011;3852;52.284;8.032;2022-12-18T03:43:31;23.77;;;13.68;;
7621;SDS011;3852;52.284;8.032;2022-12-18T03:48:59;26.08;;;13.85;;
7621;SDS011;3852;52.284;8.032;2022-12-18T03:54:13;23.60;;;13.55;;
7621;SDS011;3852;52.284;8.032;2022-12-18T03:56:40;23.42;;;12.93;;
7621;SDS011;3852;52.284;8.032;2022-12-18T03:59:12;24.90;;;13.95;;
7621;SDS011;3852;52.284;8.032;2022-12-18T04:01:45;26.73;;;13.25;;
7621;SDS011;3852;52.284;8.032;2022-12-18T04:04:14;23.83;;;12.45;;
7621;SDS011;3852;52.284;8.032;2022-12-18T04:06:41;24.02;;;13.35;;
7621;SDS011;3852;52.284;8.032;2022-12-18T04:09:09;23.02;;;13.07;;
7621;SDS011;3852;52.284;8.032;2022-12-18T04:11:35;23.55;;;12.85;;
7621;SDS011;3852;52.284;8.032;2022-12-18T04:14:01;23.67;;;12.67;;
7621;SDS011;3852;52.284;8.032;2022-12-18T04:16:26;22.37;;;12.67;;
7621;SDS011;3852;52.284;8.032;2022-12-18T04:18:53;23.33;;;12.57;;
7621;SDS011;3852;52.284;8.032;2022-12-18T04:21:19;23.25;;;12.20;;
7621;SDS011;3852;52.284;8.032;2022-12-18T04:23:46;23.17;;;11.93;;
7621;SDS011;3852;52.284;8.032;2022-12-18T04:26:12;24.55;;;12.52;;
7621;SDS011;3852;52.284;8.032;2022-12-18T04:28:37;19.23;;;11.80;;
7621;SDS011;3852;52.284;8.032;2022-12-18T04:31:03;23.70;;;13.53;;
7621;SDS011;3852;52.284;8.032;2022-12-18T04:33:29;21.67;;;11.93;;
7621;SDS011;3852;52.284;8.032;2022-12-18T04:35:55;21.80;;;12.37;;
7621;SDS011;3852;52.284;8.032;2022-12-18T04:38:21;21.27;;;11.50;;
7621;SDS011;3852;52.284;8.032;2022-12-18T04:40:47;20.93;;;11.53;;
7621;SDS011;3852;52.284;8.032;2022-12-18T04:43:12;23.07;;;12.30;;
7621;SDS011;3852;52.284;8.032;2022-12-18T04:45:38;18.90;;;10.90;;
7621;SDS011;3852;52.284;8.032;2022-12-18T04:48:04;21.67;;;11.43;;
7621;SDS011;3852;52.284;8.032;2022-12-18T04:50:30;21.42;;;11.63;;
7621;SDS011;3852;52.284;8.032;2022-12-18T04:52:57;19.52;;;10.93;;
7621;SDS011;3852;52.284;8.032;2022-12-18T04:55:26;22.63;;;11.63;;
7621;SDS011;3852;52.284;8.032;2022-12-18T04:57:52;17.35;;;11.38;;
7621;SDS011;3852;52.284;8.032;2022-12-18T05:00:18;19.13;;;11.03;;
7621;SDS011;3852;52.284;8.032;2022-12-18T05:02:44;20.65;;;11.68;;
7621;SDS011;3852;52.284;8.032;2022-12-18T05:05:10;21.70;;;11.02;;
7621;SDS011;3852;52.284;8.032;2022-12-18T05:07:36;20.83;;;11.13;;
7621;SDS011;3852;52.284;8.032;2022-12-18T05:10:02;20.00;;;10.60;;
7621;SDS011;3852;52.284;8.032;2022-12-18T05:12:31;19.88;;;10.65;;
7621;SDS011;3852;52.284;8.032;2022-12-18T05:14:57;17.97;;;10.10;;
7621;SDS011;3852;52.284;8.032;2022-12-18T05:17:23;18.23;;;10.20;;
7621;SDS011;3852;52.284;8.032;2022-12-18T05:19:49;20.00;;;10.30;;
7621;SDS011;3852;52.284;8.032;2022-12-18T05:22:15;19.33;;;10.57;;
7621;SDS011;3852;52.284;8.032;2022-12-18T05:24:41;17.40;;;10.37;;
7621;SDS011;3852;52.284;8.032;2022-12-18T05:27:06;17.50;;;9.63;;
7621;SDS011;3852;52.284;8.032;2022-12-18T05:29:32;18.50;;;10.20;;
7621;SDS011;3852;52.284;8.032;2022-12-18T05:32:01;20.23;;;10.57;;
7621;SDS011;3852;52.284;8.032;2022-12-18T05:34:29;17.98;;;10.40;;
7621;SDS011;3852;52.284;8.032;2022-12-18T05:36:55;24.20;;;11.07;;
7621;SDS011;3852;52.284;8.032;2022-12-18T05:39:20;19.10;;;10.33;;
7621;SDS011;3852;52.284;8.032;2022-12-18T05:41:51;19.80;;;10.65;;
7621;SDS011;3852;52.284;8.032;2022-12-18T05:44:17;19.73;;;10.73;;
7621;SDS011;3852;52.284;8.032;2022-12-18T05:46:43;20.23;;;10.00;;
7621;SDS011;3852;52.284;8.032;2022-12-18T05:49:09;18.43;;;10.07;;
7621;SDS011;3852;52.284;8.032;2022-12-18T05:51:34;17.17;;;9.57;;
7621;SDS011;3852;52.284;8.032;2022-12-18T05:54:00;18.37;;;9.77;;
7621;SDS011;3852;52.284;8.032;2022-12-18T05:56:26;16.97;;;9.57;;
7621;SDS011;3852;52.284;8.032;2022-12-18T05:58:52;21.30;;;10.07;;
7621;SDS011;3852;52.284;8.032;2022-12-18T06:01:21;20.08;;;10.20;;
7621;SDS011;3852;52.284;8.032;2022-12-18T06:03:51;18.83;;;10.05;;
7621;SDS011;3852;52.284;8.032;2022-12-18T06:06:21;19.35;;;9.60;;
7621;SDS011;3852;52.284;8.032;2022-12-18T06:08:50;18.00;;;9.65;;
7621;SDS011;3852;52.284;8.032;2022-12-18T06:11:17;18.50;;;9.95;;
7621;SDS011;3852;52.284;8.032;2022-12-18T06:13:46;17.42;;;9.35;;
7621;SDS011;3852;52.284;8.032;2022-12-18T06:16:16;20.42;;;10.35;;
7621;SDS011;3852;52.284;8.032;2022-12-18T06:18:42;21.57;;;10.60;;
7621;SDS011;3852;52.284;8.032;2022-12-18T06:21:08;21.77;;;11.00;;
7621;SDS011;3852;52.284;8.032;2022-12-18T06:23:34;15.48;;;8.93;;
7621;SDS011;3852;52.284;8.032;2022-12-18T06:26:04;18.08;;;10.02;;
7621;SDS011;3852;52.284;8.032;2022-12-18T06:28:34;18.95;;;9.77;;
7621;SDS011;3852;52.284;8.032;2022-12-18T06:31:02;19.02;;;10.10;;
7621;SDS011;3852;52.284;8.032;2022-12-18T06:33:31;20.02;;;10.07;;
7621;SDS011;3852;52.284;8.032;2022-12-18T06:36:01;17.83;;;10.02;;
7621;SDS011;3852;52.284;8.032;2022-12-18T06:38:33;16.45;;;9.65;;
7621;SDS011;3852;52.284;8.032;2022-12-18T06:41:02;19.17;;;9.82;;
7621;SDS011;3852;52.284;8.032;2022-12-18T06:43:45;20.38;;;9.82;;
7621;SDS011;3852;52.284;8.032;2022-12-18T06:46:11;17.97;;;9.60;;
7621;SDS011;3852;52.284;8.032;2022-12-18T06:48:37;16.83;;;9.75;;
7621;SDS011;3852;52.284;8.032;2022-12-18T06:51:03;17.65;;;9.23;;
7621;SDS011;3852;52.284;8.032;2022-12-18T06:53:29;20.08;;;10.32;;
7621;SDS011;3852;52.284;8.032;2022-12-18T06:56:03;19.48;;;10.30;;
7621;SDS011;3852;52.284;8.032;2022-12-18T06:58:31;18.77;;;9.75;;
7621;SDS011;3852;52.284;8.032;2022-12-18T07:01:01;19.23;;;9.82;;
7621;SDS011;3852;52.284;8.032;2022-12-18T07:03:29;18.52;;;10.05;;
7621;SDS011;3852;52.284;8.032;2022-12-18T07:05:55;17.33;;;10.13;;
7621;SDS011;3852;52.284;8.032;2022-12-18T07:08:21;18.40;;;9.30;;
7621;SDS011;3852;52.284;8.032;2022-12-18T07:10:47;16.45;;;9.48;;
7621;SDS011;3852;52.284;8.032;2022-12-18T07:13:14;17.30;;;9.63;;
7621;SDS011;3852;52.284;8.032;2022-12-18T07:15:41;18.15;;;9.10;;
7621;SDS011;3852;52.284;8.032;2022-12-18T07:18:07;17.30;;;9.60;;
7621;SDS011;3852;52.284;8.032;2022-12-18T07:20:33;18.67;;;9.53;;
7621;SDS011;3852;52.284;8.032;2022-12-18T07:23:01;17.80;;;9.77;;
7621;SDS011;3852;52.284;8.032;2022-12-18T07:25:28;20.48;;;10.30;;
7621;SDS011;3852;52.284;8.032;2022-12-18T07:27:54;21.00;;;9.97;;
7621;SDS011;3852;52.284;8.032;2022-12-18T07:30:20;20.57;;;10.47;;
7621;SDS011;3852;52.284;8.032;2022-12-18T07:32:46;20.10;;;9.70;;
7621;SDS011;3852;52.284;8.032;2022-12-18T07:35:12;18.45;;;9.80;;
7621;SDS011;3852;52.284;8.032;2022-12-18T07:37:37;17.53;;;9.47;;
7621;SDS011;3852;52.284;8.032;2022-12-18T07:40:03;17.20;;;10.20;;
7621;SDS011;3852;52.284;8.032;2022-12-18T07:42:31;20.40;;;10.05;;
7621;SDS011;3852;52.284;8.032;2022-12-18T07:45:00;18.40;;;9.47;;
7621;SDS011;3852;52.284;8.032;2022-12-18T07:47:27;18.13;;;9.68;;
7621;SDS011;3852;52.284;8.032;2022-12-18T07:49:56;17.45;;;10.25;;
7621;SDS011;3852;52.284;8.032;2022-12-18T07:52:22;17.20;;;10.20;;
7621;SDS011;3852;52.284;8.032;2022-12-18T07:54:47;17.00;;;9.63;;
7621;SDS011;3852;52.284;8.032;2022-12-18T07:57:15;18.55;;;9.82;;
7621;SDS011;3852;52.284;8.032;2022-12-18T07:59:42;17.23;;;9.13;;
7621;SDS011;3852;52.284;8.032;2022-12-18T08:02:08;17.53;;;9.93;;
7621;SDS011;3852;52.284;8.032;2022-12-18T08:04:34;17.30;;;9.82;;
7621;SDS011;3852;52.284;8.032;2022-12-18T08:07:00;18.03;;;9.53;;
7621;SDS011;3852;52.284;8.032;2022-12-18T08:09:25;22.47;;;10.80;;
7621;SDS011;3852;52.284;8.032;2022-12-18T08:11:51;19.87;;;10.20;;
7621;SDS011;3852;52.284;8.032;2022-12-18T08:14:17;18.30;;;9.30;;
7621;SDS011;3852;52.284;8.032;2022-12-18T08:16:43;16.50;;;10.20;;
7621;SDS011;3852;52.284;8.032;2022-12-18T08:19:12;20.33;;;10.70;;
7621;SDS011;3852;52.284;8.032;2022-12-18T08:21:41;18.08;;;10.32;;
7621;SDS011;3852;52.284;8.032;2022-12-18T08:24:08;17.17;;;9.60;;
7621;SDS011;3852;52.284;8.032;2022-12-18T08:26:35;17.92;;;9.73;;
7621;SDS011;3852;52.284;8.032;2022-12-18T08:29:01;19.10;;;10.30;;
7621;SDS011;3852;52.284;8.032;2022-12-18T08:31:28;18.33;;;10.03;;
7621;SDS011;3852;52.284;8.032;2022-12-18T08:33:55;18.23;;;9.82;;
7621;SDS011;3852;52.284;8.032;2022-12-18T08:36:22;17.85;;;10.15;;
7621;SDS011;3852;52.284;8.032;2022-12-18T08:38:48;18.33;;;10.13;;
7621;SDS011;3852;52.284;8.032;2022-12-18T08:41:15;15.43;;;9.73;;
7621;SDS011;3852;52.284;8.032;2022-12-18T08:43:42;19.80;;;10.15;;
7621;SDS011;3852;52.284;8.032;2022-12-18T08:46:27;17.70;;;9.75;;
7621;SDS011;3852;52.284;8.032;2022-12-18T08:49:02;16.63;;;9.93;;
7621;SDS011;3852;52.284;8.032;2022-12-18T08:51:28;16.95;;;9.90;;
7621;SDS011;3852;52.284;8.032;2022-12-18T08:53:54;22.43;;;11.03;;
7621;SDS011;3852;52.284;8.032;2022-12-18T08:56:20;22.37;;;10.80;;
7621;SDS011;3852;52.284;8.032;2022-12-18T08:58:46;19.87;;;10.53;;
7621;SDS011;3852;52.284;8.032;2022-12-18T09:01:12;19.60;;;11.03;;
7621;SDS011;3852;52.284;8.032;2022-12-18T09:03:38;20.02;;;10.88;;
7621;SDS011;3852;52.284;8.032;2022-12-18T09:06:05;17.52;;;10.32;;
7621;SDS011;3852;52.284;8.032;2022-12-18T09:08:34;20.10;;;11.38;;
7621;SDS011;3852;52.284;8.032;2022-12-18T09:11:01;20.63;;;10.43;;
7621;SDS011;3852;52.284;8.032;2022-12-18T09:13:28;19.55;;;11.20;;
7621;SDS011;3852;52.284;8.032;2022-12-18T09:15:54;21.90;;;10.53;;
7621;SDS011;3852;52.284;8.032;2022-12-18T09:18:21;19.05;;;11.07;;
7621;SDS011;3852;52.284;8.032;2022-12-18T09:20:48;19.50;;;10.55;;
7621;SDS011;3852;52.284;8.032;2022-12-18T09:23:16;20.85;;;10.98;;
7621;SDS011;3852;52.284;8.032;2022-12-18T09:25:42;16.67;;;9.97;;
7621;SDS011;3852;52.284;8.032;2022-12-18T09:28:15;17.67;;;10.77;;
7621;SDS011;3852;52.284;8.032;2022-12-18T09:30:47;18.05;;;10.05;;
7621;SDS011;3852;52.284;8.032;2022-12-18T09:33:14;19.83;;;11.13;;
7621;SDS011;3852;52.284;8.032;2022-12-18T09:35:41;15.88;;;10.10;;
7621;SDS011;3852;52.284;8.032;2022-12-18T09:38:16;22.45;;;10.90;;
7621;SDS011;3852;52.284;8.032;2022-12-18T09:40:54;18.60;;;10.50;;
7621;SDS011;3852;52.284;8.032;2022-12-18T09:43:45;17.17;;;10.23;;
7621;SDS011;3852;52.284;8.032;2022-12-18T09:46:19;17.52;;;10.05;;
7621;SDS011;3852;52.284;8.032;2022-12-18T09:48:54;18.35;;;10.43;;
7621;SDS011;3852;52.284;8.032;2022-12-18T09:51:29;19.30;;;9.60;;
7621;SDS011;3852;52.284;8.032;2022-12-18T09:54:02;18.60;;;10.15;;
7621;SDS011;3852;52.284;8.032;2022-12-18T09:56:35;21.88;;;11.10;;
7621;SDS011;3852;52.284;8.032;2022-12-18T09:59:04;19.65;;;10.82;;
7621;SDS011;3852;52.284;8.032;2022-12-18T10:01:31;17.20;;;9.95;;
7621;SDS011;3852;52.284;8.032;2022-12-18T10:03:58;17.52;;;10.85;;
7621;SDS011;3852;52.284;8.032;2022-12-18T10:06:32;21.85;;;12.07;;
7621;SDS011;3852;52.284;8.032;2022-12-18T10:15:36;19.15;;;11.85;;
7621;SDS011;3852;52.284;8.032;2022-12-18T10:18:14;21.15;;;12.55;;
7621;SDS011;3852;52.284;8.032;2022-12-18T10:20:54;17.92;;;11.65;;
7621;SDS011;3852;52.284;8.032;2022-12-18T10:23:33;22.13;;;12.50;;
7621;SDS011;3852;52.284;8.032;2022-12-18T10:26:07;21.80;;;12.82;;
7621;SDS011;3852;52.284;8.032;2022-12-18T10:28:38;22.15;;;13.40;;
7621;SDS011;3852;52.284;8.032;2022-12-18T10:31:06;19.20;;;12.80;;
7621;SDS011;3852;52.284;8.032;2022-12-18T10:33:39;26.40;;;16.40;;
7621;SDS011;3852;52.284;8.032;2022-12-18T10:36:06;22.48;;;13.70;;
7621;SDS011;3852;52.284;8.032;2022-12-18T10:38:32;27.92;;;17.33;;
7621;SDS011;3852;52.284;8.032;2022-12-18T10:47:02;31.35;;;17.88;;
7621;SDS011;3852;52.284;8.032;2022-12-18T10:49:31;24.65;;;15.70;;
7621;SDS011;3852;52.284;8.032;2022-12-18T10:52:19;21.35;;;13.35;;
7621;SDS011;3852;52.284;8.032;2022-12-18T10:54:57;25.02;;;16.38;;
7621;SDS011;3852;52.284;8.032;2022-12-18T10:57:35;26.48;;;16.83;;
7621;SDS011;3852;52.284;8.032;2022-12-18T11:00:28;29.10;;;17.27;;
7621;SDS011;3852;52.284;8.032;2022-12-18T11:02:55;26.25;;;16.10;;
7621;SDS011;3852;52.284;8.032;2022-12-18T11:05:26;23.05;;;14.02;;
7621;SDS011;3852;52.284;8.032;2022-12-18T11:08:02;25.63;;;14.73;;
7621;SDS011;3852;52.284;8.032;2022-12-18T11:10:37;27.33;;;15.55;;
7621;SDS011;3852;52.284;8.032;2022-12-18T11:13:21;23.50;;;13.23;;
7621;SDS011;3852;52.284;8.032;2022-12-18T11:15:53;23.45;;;14.65;;
7621;SDS011;3852;52.284;8.032;2022-12-18T11:18:25;23.65;;;13.93;;
7621;SDS011;3852;52.284;8.032;2022-12-18T11:21:05;22.20;;;13.63;;
7621;SDS011;3852;52.284;8.032;2022-12-18T11:23:34;22.38;;;13.30;;
7621;SDS011;3852;52.284;8.032;2022-12-18T11:26:03;20.88;;;13.10;;
7621;SDS011;3852;52.284;8.032;2022-12-18T11:31:16;25.52;;;12.70;;
7621;SDS011;3852;52.284;8.032;2022-12-18T11:33:52;19.95;;;11.63;;
7621;SDS011;3852;52.284;8.032;2022-12-18T11:36:28;20.67;;;12.35;;
7621;SDS011;3852;52.284;8.032;2022-12-18T11:38:59;22.20;;;12.80;;
7621;SDS011;3852;52.284;8.032;2022-12-18T11:41:39;19.42;;;12.13;;
7621;SDS011;3852;52.284;8.032;2022-12-18T11:44:48;22.73;;;12.23;;
7621;SDS011;3852;52.284;8.032;2022-12-18T11:53:20;18.70;;;11.30;;
7621;SDS011;3852;52.284;8.032;2022-12-18T11:55:49;19.45;;;11.65;;
7621;SDS011;3852;52.284;8.032;2022-12-18T11:58:47;19.98;;;11.77;;
7621;SDS011;3852;52.284;8.032;2022-12-18T12:01:41;18.13;;;10.88;;
7621;SDS011;3852;52.284;8.032;2022-12-18T12:07:17;19.77;;;11.60;;
7621;SDS011;3852;52.284;8.032;2022-12-18T12:21:59;18.80;;;10.63;;
7621;SDS011;3852;52.284;8.032;2022-12-18T12:30:34;17.73;;;10.68;;
7621;SDS011;3852;52.284;8.032;2022-12-18T12:33:45;14.93;;;9.53;;
7621;SDS011;3852;52.284;8.032;2022-12-18T12:39:34;15.87;;;10.10;;
7621;SDS011;3852;52.284;8.032;2022-12-18T12:42:04;17.53;;;10.70;;
7621;SDS011;3852;52.284;8.032;2022-12-18T12:44:58;16.00;;;9.33;;
7621;SDS011;3852;52.284;8.032;2022-12-18T12:47:28;14.67;;;10.03;;
7621;SDS011;3852;52.284;8.032;2022-12-18T12:50:02;15.70;;;9.83;;
7621;SDS011;3852;52.284;8.032;2022-12-18T12:52:43;17.53;;;10.40;;
7621;SDS011;3852;52.284;8.032;2022-12-18T12:55:20;14.33;;;9.20;;
7621;SDS011;3852;52.284;8.032;2022-12-18T13:01:08;14.93;;;9.67;;
7621;SDS011;3852;52.284;8.032;2022-12-18T13:06:53;13.77;;;8.33;;
7621;SDS011;3852;52.284;8.032;2022-12-18T13:09:30;13.63;;;9.90;;
7621;SDS011;3852;52.284;8.032;2022-12-18T13:12:01;15.83;;;11.27;;
7621;SDS011;3852;52.284;8.032;2022-12-18T13:14:48;19.10;;;12.40;;
7621;SDS011;3852;52.284;8.032;2022-12-18T13:22:38;13.87;;;7.53;;
7621;SDS011;3852;52.284;8.032;2022-12-18T13:28:12;12.67;;;7.30;;
7621;SDS011;3852;52.284;8.032;2022-12-18T13:41:04;9.77;;;6.27;;
7621;SDS011;3852;52.284;8.032;2022-12-18T13:43:33;12.33;;;7.40;;
7621;SDS011;3852;52.284;8.032;2022-12-18T13:51:39;12.83;;;7.70;;
7621;SDS011;3852;52.284;8.032;2022-12-18T13:56:51;9.93;;;7.33;;
7621;SDS011;3852;52.284;8.032;2022-12-18T14:02:17;14.20;;;7.60;;
7621;SDS011;3852;52.284;8.032;2022-12-18T14:04:47;14.13;;;7.07;;
7621;SDS011;3852;52.284;8.032;2022-12-18T14:07:21;11.73;;;7.33;;
7621;SDS011;3852;52.284;8.032;2022-12-18T14:10:00;10.87;;;7.07;;
7621;SDS011;3852;52.284;8.032;2022-12-18T14:12:29;10.70;;;7.03;;
7621;SDS011;3852;52.284;8.032;2022-12-18T14:15:25;12.10;;;7.37;;
7621;SDS011;3852;52.284;8.032;2022-12-18T14:20:52;15.40;;;8.20;;
7621;SDS011;3852;52.284;8.032;2022-12-18T14:23:29;13.40;;;8.30;;
7621;SDS011;3852;52.284;8.032;2022-12-18T14:26:01;14.13;;;8.63;;
7621;SDS011;3852;52.284;8.032;2022-12-18T14:28:50;9.33;;;6.03;;
7621;SDS011;3852;52.284;8.032;2022-12-18T14:31:20;12.03;;;7.30;;
7621;SDS011;3852;52.284;8.032;2022-12-18T14:33:51;9.87;;;7.00;;
7621;SDS011;3852;52.284;8.032;2022-12-18T14:36:23;12.83;;;7.23;;
7621;SDS011;3852;52.284;8.032;2022-12-18T14:38:53;12.97;;;9.30;;
7621;SDS011;3852;52.284;8.032;2022-12-18T14:41:21;11.97;;;7.07;;
7621;SDS011;3852;52.284;8.032;2022-12-18T14:43:49;11.17;;;6.97;;
7621;SDS011;3852;52.284;8.032;2022-12-18T14:46:50;12.87;;;7.27;;
7621;SDS011;3852;52.284;8.032;2022-12-18T14:49:26;11.00;;;6.77;;
7621;SDS011;3852;52.284;8.032;2022-12-18T14:52:01;10.27;;;7.20;;
7621;SDS011;3852;52.284;8.032;2022-12-18T14:54:30;13.03;;;7.63;;
7621;SDS011;3852;52.284;8.032;2022-12-18T14:57:04;11.77;;;7.20;;
7621;SDS011;3852;52.284;8.032;2022-12-18T14:59:51;9.67;;;6.63;;
7621;SDS011;3852;52.284;8.032;2022-12-18T15:02:27;11.60;;;7.20;;
7621;SDS011;3852;52.284;8.032;2022-12-18T15:05:04;11.30;;;7.00;;
7621;SDS011;3852;52.284;8.032;2022-12-18T15:10:15;10.93;;;6.77;;
7621;SDS011;3852;52.284;8.032;2022-12-18T15:18:03;10.83;;;7.00;;
7621;SDS011;3852;52.284;8.032;2022-12-18T15:20:32;10.63;;;6.83;;
7621;SDS011;3852;52.284;8.032;2022-12-18T15:23:05;11.40;;;6.53;;
7621;SDS011;3852;52.284;8.032;2022-12-18T15:25:39;11.60;;;6.60;;
7621;SDS011;3852;52.284;8.032;2022-12-18T15:36:34;12.80;;;7.87;;
7621;SDS011;3852;52.284;8.032;2022-12-18T15:39:01;12.60;;;7.20;;
7621;SDS011;3852;52.284;8.032;2022-12-18T15:41:28;11.17;;;6.33;;
7621;SDS011;3852;52.284;8.032;2022-12-18T15:43:58;12.63;;;7.93;;
7621;SDS011;3852;52.284;8.032;2022-12-18T15:46:24;13.40;;;9.10;;
7621;SDS011;3852;52.284;8.032;2022-12-18T15:48:52;19.47;;;13.03;;
7621;SDS011;3852;52.284;8.032;2022-12-18T15:51:28;18.53;;;10.00;;
7621;SDS011;3852;52.284;8.032;2022-12-18T15:53:58;10.87;;;7.57;;
7621;SDS011;3852;52.284;8.032;2022-12-18T15:56:28;20.27;;;12.43;;
7621;SDS011;3852;52.284;8.032;2022-12-18T15:59:19;16.57;;;8.20;;
7621;SDS011;3852;52.284;8.032;2022-12-18T16:01:47;15.40;;;10.60;;
7621;SDS011;3852;52.284;8.032;2022-12-18T16:04:15;16.30;;;10.40;;
7621;SDS011;3852;52.284;8.032;2022-12-18T16:06:45;37.13;;;21.90;;
7621;SDS011;3852;52.284;8.032;2022-12-18T16:09:11;13.60;;;9.00;;
7621;SDS011;3852;52.284;8.032;2022-12-18T16:11:37;15.27;;;9.10;;
7621;SDS011;3852;52.284;8.032;2022-12-18T16:16:51;16.53;;;10.63;;
7621;SDS011;3852;52.284;8.032;2022-12-18T16:19:20;23.10;;;13.83;;
7621;SDS011;3852;52.284;8.032;2022-12-18T16:21:47;20.60;;;14.90;;
7621;SDS011;3852;52.284;8.032;2022-12-18T16:24:15;18.40;;;12.33;;
7621;SDS011;3852;52.284;8.032;2022-12-18T16:26:47;12.70;;;8.00;;
7621;SDS011;3852;52.284;8.032;2022-12-18T16:29:14;16.07;;;10.37;;
7621;SDS011;3852;52.284;8.032;2022-12-18T16:31:40;11.70;;;7.17;;
7621;SDS011;3852;52.284;8.032;2022-12-18T16:34:25;9.30;;;6.40;;
7621;SDS011;3852;52.284;8.032;2022-12-18T16:37:00;14.63;;;7.07;;
7621;SDS011;3852;52.284;8.032;2022-12-18T16:39:29;12.17;;;7.13;;
7621;SDS011;3852;52.284;8.032;2022-12-18T16:41:55;10.30;;;6.60;;
7621;SDS011;3852;52.284;8.032;2022-12-18T16:44:22;9.90;;;6.33;;
7621;SDS011;3852;52.284;8.032;2022-12-18T16:46:48;9.10;;;6.47;;
7621;SDS011;3852;52.284;8.032;2022-12-18T16:49:14;11.00;;;6.63;;
7621;SDS011;3852;52.284;8.032;2022-12-18T16:51:42;9.30;;;6.30;;
7621;SDS011;3852;52.284;8.032;2022-12-18T16:54:08;10.27;;;6.47;;
7621;SDS011;3852;52.284;8.032;2022-12-18T16:56:34;10.17;;;6.30;;
7621;SDS011;3852;52.284;8.032;2022-12-18T16:59:02;10.83;;;6.50;;
7621;SDS011;3852;52.284;8.032;2022-12-18T17:01:28;9.17;;;6.30;;
7621;SDS011;3852;52.284;8.032;2022-12-18T17:03:57;9.60;;;6.40;;
7621;SDS011;3852;52.284;8.032;2022-12-18T17:06:33;12.30;;;7.77;;
7621;SDS011;3852;52.284;8.032;2022-12-18T17:09:08;10.47;;;7.17;;
7621;SDS011;3852;52.284;8.032;2022-12-18T17:11:38;9.47;;;6.47;;
7621;SDS011;3852;52.284;8.032;2022-12-18T17:14:08;11.10;;;7.93;;
7621;SDS011;3852;52.284;8.032;2022-12-18T17:16:43;8.67;;;6.10;;
7621;SDS011;3852;52.284;8.032;2022-12-18T17:19:09;14.50;;;8.20;;
7621;SDS011;3852;52.284;8.032;2022-12-18T17:21:35;11.50;;;8.47;;
7621;SDS011;3852;52.284;8.032;2022-12-18T17:24:01;11.17;;;7.93;;
7621;SDS011;3852;52.284;8.032;2022-12-18T17:26:27;13.47;;;7.50;;
7621;SDS011;3852;52.284;8.032;2022-12-18T17:28:57;10.73;;;7.03;;